sensor_id;sensor_type;location;lat;lon;timestamp;pressure;altitude;pressure_sealevel;temperature;humidity
43364;BME280;40636;52.424;-1.948;2023-02-28T00:00:30;101739.94;;;4.52;100.00
43364;BME280;40636;52.424;-1.948;2023-02-28T00:02:57;101747.25;;;4.51;100.00
43364;BME280;40636;52.424;-1.948;2023-02-28T00:05:26;101743.50;;;4.52;100.00
43364;BME280;40636;52.424;-1.948;2023-02-28T00:07:53;101747.59;;;4.48;100.00
43364;BME280;40636;52.424;-1.948;2023-02-28T00:10:22;101747.44;;;4.58;100.00
43364;BME280;40636;52.424;-1.948;2023-02-28T00:12:50;101754.59;;;4.59;100.00
43364;BME280;40636;52.424;-1.948;2023-02-28T00:15:18;101754.06;;;4.55;100.00
43364;BME280;40636;52.424;-1.948;2023-02-28T00:17:45;101749.81;;;4.53;100.00
43364;BME280;40636;52.424;-1.948;2023-02-28T00:20:13;101757.97;;;4.53;100.00
43364;BME280;40636;52.424;-1.948;2023-02-28T00:22:42;101748.47;;;4.57;100.00
43364;BME280;40636;52.424;-1.948;2023-02-28T00:25:12;101753.38;;;4.45;100.00
43364;BME280;40636;52.424;-1.948;2023-02-28T00:27:40;101754.72;;;4.49;100.00
43364;BME280;40636;52.424;-1.948;2023-02-28T00:30:09;101753.72;;;4.58;100.00
43364;BME280;40636;52.424;-1.948;2023-02-28T00:32:37;101750.00;;;4.60;100.00
43364;BME280;40636;52.424;-1.948;2023-02-28T00:35:04;101754.41;;;4.61;100.00
43364;BME280;40636;52.424;-1.948;2023-02-28T00:37:32;101756.28;;;4.60;100.00
43364;BME280;40636;52.424;-1.948;2023-02-28T00:39:58;101760.19;;;4.66;100.00
43364;BME280;40636;52.424;-1.948;2023-02-28T00:42:25;101762.91;;;4.66;100.00
43364;BME280;40636;52.424;-1.948;2023-02-28T00:44:52;101757.47;;;4.57;100.00
43364;BME280;40636;52.424;-1.948;2023-02-28T00:47:18;101763.59;;;4.60;100.00
43364;BME280;40636;52.424;-1.948;2023-02-28T00:49:45;101757.13;;;4.61;100.00
43364;BME280;40636;52.424;-1.948;2023-02-28T00:52:12;101765.97;;;4.63;100.00
43364;BME280;40636;52.424;-1.948;2023-02-28T00:54:38;101758.16;;;4.60;100.00
43364;BME280;40636;52.424;-1.948;2023-02-28T00:57:05;101758.16;;;4.68;100.00
43364;BME280;40636;52.424;-1.948;2023-02-28T00:59:31;101760.03;;;4.67;100.00
43364;BME280;40636;52.424;-1.948;2023-02-28T01:01:58;101755.94;;;4.63;100.00
43364;BME280;40636;52.424;-1.948;2023-02-28T01:04:25;101767.00;;;4.70;100.00
43364;BME280;40636;52.424;-1.948;2023-02-28T01:06:51;101755.81;;;4.73;100.00
43364;BME280;40636;52.424;-1.948;2023-02-28T01:09:18;101763.25;;;4.71;100.00
43364;BME280;40636;52.424;-1.948;2023-02-28T01:11:45;101763.97;;;4.73;100.00
43364;BME280;40636;52.424;-1.948;2023-02-28T01:14:14;101768.19;;;4.67;100.00
43364;BME280;40636;52.424;-1.948;2023-02-28T01:16:41;101764.63;;;4.67;100.00
43364;BME280;40636;52.424;-1.948;2023-02-28T01:19:08;101756.44;;;4.67;100.00
43364;BME280;40636;52.424;-1.948;2023-02-28T01:21:35;101767.34;;;4.67;100.00
43364;BME280;40636;52.424;-1.948;2023-02-28T01:24:03;101769.72;;;4.62;100.00
43364;BME280;40636;52.424;-1.948;2023-02-28T01:26:30;101770.56;;;4.62;100.00
43364;BME280;40636;52.424;-1.948;2023-02-28T01:28:57;101771.56;;;4.61;100.00
43364;BME280;40636;52.424;-1.948;2023-02-28T01:31:24;101774.81;;;4.65;100.00
43364;BME280;40636;52.424;-1.948;2023-02-28T01:33:52;101776.84;;;4.63;100.00
43364;BME280;40636;52.424;-1.948;2023-02-28T01:36:21;101771.75;;;4.60;100.00
43364;BME280;40636;52.424;-1.948;2023-02-28T01:38:48;101767.13;;;4.52;100.00
43364;BME280;40636;52.424;-1.948;2023-02-28T01:41:24;101772.75;;;4.50;100.00
43364;BME280;40636;52.424;-1.948;2023-02-28T01:46:33;101772.56;;;4.52;100.00
43364;BME280;40636;52.424;-1.948;2023-02-28T01:49:11;101774.13;;;4.54;100.00
43364;BME280;40636;52.424;-1.948;2023-02-28T01:51:45;101774.13;;;4.54;100.00
43364;BME280;40636;52.424;-1.948;2023-02-28T01:54:21;101770.72;;;4.61;100.00
43364;BME280;40636;52.424;-1.948;2023-02-28T01:56:53;101769.88;;;4.60;100.00
43364;BME280;40636;52.424;-1.948;2023-02-28T01:59:33;101765.97;;;4.63;100.00
43364;BME280;40636;52.424;-1.948;2023-02-28T02:02:02;101772.06;;;4.56;100.00
43364;BME280;40636;52.424;-1.948;2023-02-28T02:04:36;101762.06;;;4.57;100.00
43364;BME280;40636;52.424;-1.948;2023-02-28T02:07:04;101759.00;;;4.60;100.00
43364;BME280;40636;52.424;-1.948;2023-02-28T02:09:31;101770.03;;;4.58;100.00
43364;BME280;40636;52.424;-1.948;2023-02-28T02:11:59;101772.91;;;4.57;100.00
43364;BME280;40636;52.424;-1.948;2023-02-28T02:14:48;101775.97;;;4.54;100.00
43364;BME280;40636;52.424;-1.948;2023-02-28T02:17:38;101767.81;;;4.54;100.00
43364;BME280;40636;52.424;-1.948;2023-02-28T02:23:09;101767.00;;;4.70;100.00
43364;BME280;40636;52.424;-1.948;2023-02-28T02:31:20;101766.47;;;4.50;100.00
43364;BME280;40636;52.424;-1.948;2023-02-28T02:36:52;101756.09;;;4.53;100.00
43364;BME280;40636;52.424;-1.948;2023-02-28T02:39:29;101756.75;;;4.47;100.00
43364;BME280;40636;52.424;-1.948;2023-02-28T02:42:00;101758.47;;;4.48;100.00
43364;BME280;40636;52.424;-1.948;2023-02-28T02:44:36;101762.56;;;4.52;100.00
43364;BME280;40636;52.424;-1.948;2023-02-28T02:47:17;101754.22;;;4.54;100.00
43364;BME280;40636;52.424;-1.948;2023-02-28T02:49:52;101751.34;;;4.55;100.00
43364;BME280;40636;52.424;-1.948;2023-02-28T02:52:23;101758.47;;;4.56;100.00
43364;BME280;40636;52.424;-1.948;2023-02-28T02:54:52;101753.03;;;4.56;100.00
43364;BME280;40636;52.424;-1.948;2023-02-28T02:57:56;101749.31;;;4.57;100.00
43364;BME280;40636;52.424;-1.948;2023-02-28T03:00:28;101743.50;;;4.52;100.00
43364;BME280;40636;52.424;-1.948;2023-02-28T03:02:58;101742.50;;;4.53;100.00
43364;BME280;40636;52.424;-1.948;2023-02-28T03:05:39;101747.06;;;4.45;100.00
43364;BME280;40636;52.424;-1.948;2023-02-28T03:08:08;101748.25;;;4.42;100.00
43364;BME280;40636;52.424;-1.948;2023-02-28T03:10:41;101750.97;;;4.42;100.00
43364;BME280;40636;52.424;-1.948;2023-02-28T03:27:01;101738.41;;;4.49;100.00
43364;BME280;40636;52.424;-1.948;2023-02-28T03:29:35;101746.75;;;4.48;100.00
43364;BME280;40636;52.424;-1.948;2023-02-28T03:32:10;101743.69;;;4.51;100.00
43364;BME280;40636;52.424;-1.948;2023-02-28T03:34:49;101749.81;;;4.53;100.00
43364;BME280;40636;52.424;-1.948;2023-02-28T03:37:22;101742.16;;;4.48;100.00
43364;BME280;40636;52.424;-1.948;2023-02-28T03:39:56;101742.66;;;4.52;100.00
43364;BME280;40636;52.424;-1.948;2023-02-28T03:42:28;101743.84;;;4.49;100.00
43364;BME280;40636;52.424;-1.948;2023-02-28T03:44:59;101741.63;;;4.45;100.00
43364;BME280;40636;52.424;-1.948;2023-02-28T03:52:50;101748.41;;;4.32;100.00
43364;BME280;40636;52.424;-1.948;2023-02-28T03:55:19;101753.66;;;4.34;100.00
43364;BME280;40636;52.424;-1.948;2023-02-28T03:58:07;101746.72;;;4.31;100.00
43364;BME280;40636;52.424;-1.948;2023-02-28T04:00:43;101757.41;;;4.33;100.00
43364;BME280;40636;52.424;-1.948;2023-02-28T04:03:12;101751.47;;;4.38;100.00
43364;BME280;40636;52.424;-1.948;2023-02-28T04:05:49;101747.88;;;4.29;100.00
43364;BME280;40636;52.424;-1.948;2023-02-28T04:08:17;101752.78;;;4.25;100.00
43364;BME280;40636;52.424;-1.948;2023-02-28T04:10:45;101747.72;;;4.30;100.00
43364;BME280;40636;52.424;-1.948;2023-02-28T04:13:14;101756.69;;;4.31;100.00
43364;BME280;40636;52.424;-1.948;2023-02-28T04:15:41;101763.84;;;4.24;100.00
43364;BME280;40636;52.424;-1.948;2023-02-28T04:18:08;101762.78;;;4.17;100.00
43364;BME280;40636;52.424;-1.948;2023-02-28T04:20:34;101757.69;;;4.14;100.00
43364;BME280;40636;52.424;-1.948;2023-02-28T04:23:01;101757.19;;;4.18;100.00
43364;BME280;40636;52.424;-1.948;2023-02-28T04:25:28;101760.06;;;4.17;100.00
43364;BME280;40636;52.424;-1.948;2023-02-28T04:27:54;101761.88;;;4.08;100.00
43364;BME280;40636;52.424;-1.948;2023-02-28T04:30:21;101755.25;;;4.02;100.00
43364;BME280;40636;52.424;-1.948;2023-02-28T04:32:47;101756.44;;;4.00;100.00
43364;BME280;40636;52.424;-1.948;2023-02-28T04:35:14;101754.09;;;4.05;100.00
43364;BME280;40636;52.424;-1.948;2023-02-28T04:37:42;101761.88;;;4.08;100.00
43364;BME280;40636;52.424;-1.948;2023-02-28T04:40:09;101758.66;;;4.04;100.00
43364;BME280;40636;52.424;-1.948;2023-02-28T04:42:35;101757.13;;;4.02;100.00
43364;BME280;40636;52.424;-1.948;2023-02-28T04:45:03;101752.03;;;4.07;100.00
43364;BME280;40636;52.424;-1.948;2023-02-28T04:47:30;101755.56;;;3.99;100.00
43364;BME280;40636;52.424;-1.948;2023-02-28T04:49:57;101753.91;;;4.06;100.00
43364;BME280;40636;52.424;-1.948;2023-02-28T04:52:24;101761.03;;;4.07;100.00
43364;BME280;40636;52.424;-1.948;2023-02-28T04:54:50;101754.75;;;4.07;100.00
43364;BME280;40636;52.424;-1.948;2023-02-28T04:57:17;101758.66;;;4.04;100.00
43364;BME280;40636;52.424;-1.948;2023-02-28T04:59:44;101753.06;;;4.06;100.00
43364;BME280;40636;52.424;-1.948;2023-02-28T05:02:10;101754.09;;;4.05;100.00
43364;BME280;40636;52.424;-1.948;2023-02-28T05:04:37;101758.81;;;4.03;100.00
43364;BME280;40636;52.424;-1.948;2023-02-28T05:07:04;101761.38;;;4.04;100.00
43364;BME280;40636;52.424;-1.948;2023-02-28T05:09:30;101754.44;;;4.10;100.00
43364;BME280;40636;52.424;-1.948;2023-02-28T05:11:59;101763.78;;;4.16;100.00
43364;BME280;40636;52.424;-1.948;2023-02-28T05:14:25;101756.31;;;4.18;100.00
43364;BME280;40636;52.424;-1.948;2023-02-28T05:16:52;101758.91;;;4.19;100.00
43364;BME280;40636;52.424;-1.948;2023-02-28T05:19:19;101749.19;;;4.17;100.00
43364;BME280;40636;52.424;-1.948;2023-02-28T05:21:54;101754.63;;;4.17;100.00
43364;BME280;40636;52.424;-1.948;2023-02-28T05:24:21;101770.94;;;4.17;100.00
43364;BME280;40636;52.424;-1.948;2023-02-28T05:26:53;101767.19;;;4.10;100.00
43364;BME280;40636;52.424;-1.948;2023-02-28T05:29:20;101764.81;;;4.15;100.00
43364;BME280;40636;52.424;-1.948;2023-02-28T05:31:47;101774.66;;;4.16;100.00
43364;BME280;40636;52.424;-1.948;2023-02-28T05:34:13;101785.03;;;4.20;100.00
43364;BME280;40636;52.424;-1.948;2023-02-28T05:36:42;101787.09;;;4.18;100.00
43364;BME280;40636;52.424;-1.948;2023-02-28T05:39:08;101782.84;;;4.24;100.00
43364;BME280;40636;52.424;-1.948;2023-02-28T05:41:43;101794.53;;;4.16;100.00
43364;BME280;40636;52.424;-1.948;2023-02-28T05:44:10;101793.31;;;4.11;100.00
43364;BME280;40636;52.424;-1.948;2023-02-28T05:46:37;101796.72;;;4.13;100.00
43364;BME280;40636;52.424;-1.948;2023-02-28T05:49:04;101793.00;;;4.14;100.00
43364;BME280;40636;52.424;-1.948;2023-02-28T05:51:31;101797.38;;;4.06;100.00
43364;BME280;40636;52.424;-1.948;2023-02-28T05:53:59;101797.06;;;4.10;100.00
43364;BME280;40636;52.424;-1.948;2023-02-28T05:56:27;101797.69;;;4.03;100.00
43364;BME280;40636;52.424;-1.948;2023-02-28T05:58:54;101800.78;;;4.08;100.00
43364;BME280;40636;52.424;-1.948;2023-02-28T06:01:38;101798.59;;;4.12;100.00
43364;BME280;40636;52.424;-1.948;2023-02-28T06:04:08;101797.75;;;4.12;100.00
43364;BME280;40636;52.424;-1.948;2023-02-28T06:06:48;101796.41;;;4.16;100.00
43364;BME280;40636;52.424;-1.948;2023-02-28T06:09:16;101806.94;;;4.19;100.00
43364;BME280;40636;52.424;-1.948;2023-02-28T06:11:43;101798.44;;;4.22;100.00
43364;BME280;40636;52.424;-1.948;2023-02-28T06:14:19;101810.66;;;4.18;100.00
43364;BME280;40636;52.424;-1.948;2023-02-28T06:16:46;101809.63;;;4.11;100.00
43364;BME280;40636;52.424;-1.948;2023-02-28T06:19:13;101808.25;;;4.06;100.00
43364;BME280;40636;52.424;-1.948;2023-02-28T06:21:40;101809.56;;;4.02;100.00
43364;BME280;40636;52.424;-1.948;2023-02-28T06:24:07;101810.97;;;4.06;100.00
43364;BME280;40636;52.424;-1.948;2023-02-28T06:26:34;101802.50;;;4.10;100.00
43364;BME280;40636;52.424;-1.948;2023-02-28T06:29:01;101807.59;;;4.13;100.00
43364;BME280;40636;52.424;-1.948;2023-02-28T06:31:27;101803.47;;;4.00;100.00
43364;BME280;40636;52.424;-1.948;2023-02-28T06:33:55;101807.03;;;4.01;100.00
43364;BME280;40636;52.424;-1.948;2023-02-28T06:36:23;101809.88;;;3.99;100.00
43364;BME280;40636;52.424;-1.948;2023-02-28T06:38:50;101806.88;;;4.02;100.00
43364;BME280;40636;52.424;-1.948;2023-02-28T06:41:23;101814.53;;;4.07;100.00
43364;BME280;40636;52.424;-1.948;2023-02-28T06:43:50;101815.72;;;4.13;100.00
43364;BME280;40636;52.424;-1.948;2023-02-28T06:46:16;101804.19;;;4.11;100.00
43364;BME280;40636;52.424;-1.948;2023-02-28T06:48:44;101810.66;;;4.10;100.00
43364;BME280;40636;52.424;-1.948;2023-02-28T06:51:13;101807.94;;;4.10;100.00
43364;BME280;40636;52.424;-1.948;2023-02-28T06:53:41;101808.91;;;4.08;100.00
43364;BME280;40636;52.424;-1.948;2023-02-28T06:56:10;101807.94;;;4.10;100.00
43364;BME280;40636;52.424;-1.948;2023-02-28T06:58:37;101813.38;;;4.10;100.00
43364;BME280;40636;52.424;-1.948;2023-02-28T07:01:06;101804.38;;;4.17;100.00
43364;BME280;40636;52.424;-1.948;2023-02-28T07:03:35;101816.59;;;4.13;100.00
43364;BME280;40636;52.424;-1.948;2023-02-28T07:06:02;101808.97;;;4.17;100.00
43364;BME280;40636;52.424;-1.948;2023-02-28T07:08:30;101814.75;;;4.22;100.00
43364;BME280;40636;52.424;-1.948;2023-02-28T07:10:58;101813.06;;;4.21;100.00
43364;BME280;40636;52.424;-1.948;2023-02-28T07:13:25;101821.34;;;4.11;100.00
43364;BME280;40636;52.424;-1.948;2023-02-28T07:16:00;101821.69;;;4.16;100.00
43364;BME280;40636;52.424;-1.948;2023-02-28T07:18:27;101822.72;;;4.15;100.00
43364;BME280;40636;52.424;-1.948;2023-02-28T07:20:54;101819.84;;;4.17;100.00
43364;BME280;40636;52.424;-1.948;2023-02-28T07:23:21;101817.47;;;4.14;100.00
43364;BME280;40636;52.424;-1.948;2023-02-28T07:25:49;101832.75;;;4.15;100.00
43364;BME280;40636;52.424;-1.948;2023-02-28T07:28:16;101819.84;;;4.17;100.00
43364;BME280;40636;52.424;-1.948;2023-02-28T07:30:43;101828.34;;;4.22;100.00
43364;BME280;40636;52.424;-1.948;2023-02-28T07:33:10;101829.72;;;4.26;100.00
43364;BME280;40636;52.424;-1.948;2023-02-28T07:35:37;101831.63;;;4.33;100.00
43364;BME280;40636;52.424;-1.948;2023-02-28T07:38:03;101832.78;;;4.31;100.00
43364;BME280;40636;52.424;-1.948;2023-02-28T07:40:30;101833.28;;;4.26;100.00
43364;BME280;40636;52.424;-1.948;2023-02-28T07:42:59;101830.56;;;4.26;100.00
43364;BME280;40636;52.424;-1.948;2023-02-28T07:45:26;101831.09;;;4.30;100.00
43364;BME280;40636;52.424;-1.948;2023-02-28T07:47:53;101832.47;;;4.34;100.00
43364;BME280;40636;52.424;-1.948;2023-02-28T07:50:20;101833.53;;;4.41;100.00
43364;BME280;40636;52.424;-1.948;2023-02-28T07:52:46;101838.63;;;4.44;100.00
43364;BME280;40636;52.424;-1.948;2023-02-28T07:55:13;101839.47;;;4.45;100.00
43364;BME280;40636;52.424;-1.948;2023-02-28T07:57:40;101849.50;;;4.44;100.00
43364;BME280;40636;52.424;-1.948;2023-02-28T08:00:10;101841.66;;;4.33;100.00
43364;BME280;40636;52.424;-1.948;2023-02-28T08:02:37;101848.47;;;4.37;100.00
43364;BME280;40636;52.424;-1.948;2023-02-28T08:05:05;101847.97;;;4.42;100.00
43364;BME280;40636;52.424;-1.948;2023-02-28T08:07:32;101845.59;;;4.39;100.00
43364;BME280;40636;52.424;-1.948;2023-02-28T08:10:00;101846.47;;;4.47;100.00
43364;BME280;40636;52.424;-1.948;2023-02-28T08:12:26;101846.13;;;4.42;100.00
43364;BME280;40636;52.424;-1.948;2023-02-28T08:14:53;101843.66;;;4.31;100.00
43364;BME280;40636;52.424;-1.948;2023-02-28T08:17:20;101844.72;;;4.38;100.00
43364;BME280;40636;52.424;-1.948;2023-02-28T08:19:47;101842.91;;;4.47;100.00
43364;BME280;40636;52.424;-1.948;2023-02-28T08:22:13;101841.38;;;4.52;100.00
43364;BME280;40636;52.424;-1.948;2023-02-28T08:24:43;101849.22;;;4.55;100.00
43364;BME280;40636;52.424;-1.948;2023-02-28T08:27:10;101844.59;;;4.48;100.00
43364;BME280;40636;52.424;-1.948;2023-02-28T08:29:37;101844.31;;;4.59;100.00
43364;BME280;40636;52.424;-1.948;2023-02-28T08:32:05;101833.63;;;4.66;100.00
43364;BME280;40636;52.424;-1.948;2023-02-28T08:34:45;101847.03;;;4.67;100.00
43364;BME280;40636;52.424;-1.948;2023-02-28T08:37:13;101841.44;;;4.69;100.00
43364;BME280;40636;52.424;-1.948;2023-02-28T08:39:40;101837.88;;;4.76;100.00
43364;BME280;40636;52.424;-1.948;2023-02-28T08:42:07;101837.72;;;4.70;100.00
43364;BME280;40636;52.424;-1.948;2023-02-28T08:44:34;101849.25;;;4.64;100.00
43364;BME280;40636;52.424;-1.948;2023-02-28T08:47:00;101839.22;;;4.64;100.00
43364;BME280;40636;52.424;-1.948;2023-02-28T08:49:27;101845.34;;;4.66;100.00
43364;BME280;40636;52.424;-1.948;2023-02-28T08:51:54;101857.09;;;4.75;100.00
43364;BME280;40636;52.424;-1.948;2023-02-28T08:54:23;101848.75;;;4.76;100.00
43364;BME280;40636;52.424;-1.948;2023-02-28T08:56:50;101845.91;;;4.78;100.00
43364;BME280;40636;52.424;-1.948;2023-02-28T08:59:17;101849.28;;;4.80;100.00
43364;BME280;40636;52.424;-1.948;2023-02-28T09:01:44;101852.38;;;4.77;100.00
43364;BME280;40636;52.424;-1.948;2023-02-28T09:04:10;101852.50;;;4.75;100.00
43364;BME280;40636;52.424;-1.948;2023-02-28T09:06:42;101844.00;;;4.70;100.00
43364;BME280;40636;52.424;-1.948;2023-02-28T09:09:10;101841.28;;;4.70;100.00
43364;BME280;40636;52.424;-1.948;2023-02-28T09:11:37;101838.06;;;4.75;100.00
43364;BME280;40636;52.424;-1.948;2023-02-28T09:14:04;101838.63;;;4.87;100.00
43364;BME280;40636;52.424;-1.948;2023-02-28T09:16:31;101842.00;;;4.89;100.00
43364;BME280;40636;52.424;-1.948;2023-02-28T09:19:00;101837.09;;;4.92;100.00
43364;BME280;40636;52.424;-1.948;2023-02-28T09:21:27;101839.31;;;4.97;100.00
43364;BME280;40636;52.424;-1.948;2023-02-28T09:23:54;101835.75;;;5.04;100.00
43364;BME280;40636;52.424;-1.948;2023-02-28T09:26:26;101835.75;;;5.04;100.00
43364;BME280;40636;52.424;-1.948;2023-02-28T09:29:04;101843.03;;;5.04;100.00
43364;BME280;40636;52.424;-1.948;2023-02-28T09:31:31;101835.06;;;5.11;100.00
43364;BME280;40636;52.424;-1.948;2023-02-28T09:33:58;101834.25;;;5.18;100.00
43364;BME280;40636;52.424;-1.948;2023-02-28T09:36:26;101841.53;;;5.26;100.00
43364;BME280;40636;52.424;-1.948;2023-02-28T09:39:10;101837.63;;;5.28;100.00
43364;BME280;40636;52.424;-1.948;2023-02-28T09:41:39;101837.63;;;5.12;100.00
43364;BME280;40636;52.424;-1.948;2023-02-28T09:44:22;101845.28;;;5.17;100.00
43364;BME280;40636;52.424;-1.948;2023-02-28T09:46:59;101848.84;;;5.17;100.00
43364;BME280;40636;52.424;-1.948;2023-02-28T09:49:53;101842.91;;;5.30;100.00
43364;BME280;40636;52.424;-1.948;2023-02-28T09:52:27;101840.69;;;5.33;100.00
43364;BME280;40636;52.424;-1.948;2023-02-28T09:54:55;101847.66;;;5.20;100.00
43364;BME280;40636;52.424;-1.948;2023-02-28T09:57:36;101847.31;;;5.31;100.00
43364;BME280;40636;52.424;-1.948;2023-02-28T10:00:13;101835.59;;;5.30;100.00
43364;BME280;40636;52.424;-1.948;2023-02-28T10:03:23;101845.78;;;5.45;100.00
43364;BME280;40636;52.424;-1.948;2023-02-28T10:06:02;101839.16;;;5.39;100.00
43364;BME280;40636;52.424;-1.948;2023-02-28T10:08:37;101844.59;;;5.39;100.00
43364;BME280;40636;52.424;-1.948;2023-02-28T10:11:12;101833.34;;;5.58;100.00
43364;BME280;40636;52.424;-1.948;2023-02-28T10:13:50;101842.03;;;5.54;100.00
43364;BME280;40636;52.424;-1.948;2023-02-28T10:16:30;101843.72;;;5.71;100.00
43364;BME280;40636;52.424;-1.948;2023-02-28T10:19:16;101836.25;;;5.73;100.00
43364;BME280;40636;52.424;-1.948;2023-02-28T10:24:37;101844.25;;;5.58;100.00
43364;BME280;40636;52.424;-1.948;2023-02-28T10:27:18;101838.47;;;5.62;100.00
43364;BME280;40636;52.424;-1.948;2023-02-28T10:29:56;101832.84;;;5.71;100.00
43364;BME280;40636;52.424;-1.948;2023-02-28T10:32:25;101834.38;;;5.74;100.00
43364;BME280;40636;52.424;-1.948;2023-02-28T10:35:00;101845.63;;;5.63;100.00
43364;BME280;40636;52.424;-1.948;2023-02-28T10:37:28;101836.94;;;5.67;100.00
43364;BME280;40636;52.424;-1.948;2023-02-28T10:39:54;101827.91;;;5.67;100.00
43364;BME280;40636;52.424;-1.948;2023-02-28T10:42:27;101824.84;;;5.53;100.00
43364;BME280;40636;52.424;-1.948;2023-02-28T11:01:44;101819.38;;;5.86;100.00
43364;BME280;40636;52.424;-1.948;2023-02-28T11:06:46;101827.19;;;5.81;100.00
43364;BME280;40636;52.424;-1.948;2023-02-28T11:09:33;101824.00;;;5.77;100.00
43364;BME280;40636;52.424;-1.948;2023-02-28T11:12:04;101827.25;;;5.73;100.00
43364;BME280;40636;52.424;-1.948;2023-02-28T11:14:37;101823.81;;;5.79;100.00
43364;BME280;40636;52.424;-1.948;2023-02-28T11:17:24;101816.34;;;5.73;100.00
43364;BME280;40636;52.424;-1.948;2023-02-28T11:19:55;101818.56;;;5.69;100.00
43364;BME280;40636;52.424;-1.948;2023-02-28T11:22:25;101823.31;;;5.75;100.00
43364;BME280;40636;52.424;-1.948;2023-02-28T11:24:58;101815.97;;;5.76;100.00
43364;BME280;40636;52.424;-1.948;2023-02-28T11:30:00;101815.00;;;5.44;100.00
43364;BME280;40636;52.424;-1.948;2023-02-28T11:32:28;101811.28;;;5.45;100.00
43364;BME280;40636;52.424;-1.948;2023-02-28T11:35:15;101825.56;;;5.47;100.00
43364;BME280;40636;52.424;-1.948;2023-02-28T11:37:44;101817.72;;;5.52;100.00
43364;BME280;40636;52.424;-1.948;2023-02-28T11:40:22;101817.91;;;5.51;100.00
43364;BME280;40636;52.424;-1.948;2023-02-28T11:49:02;101805.06;;;5.84;100.00
43364;BME280;40636;52.424;-1.948;2023-02-28T11:51:49;101794.50;;;5.97;100.00
43364;BME280;40636;52.424;-1.948;2023-02-28T11:57:00;101795.03;;;5.76;100.00
43364;BME280;40636;52.424;-1.948;2023-02-28T11:59:39;101793.84;;;5.71;100.00
43364;BME280;40636;52.424;-1.948;2023-02-28T12:02:23;101792.16;;;5.86;100.00
43364;BME280;40636;52.424;-1.948;2023-02-28T12:12:38;101792.47;;;5.83;100.00
43364;BME280;40636;52.424;-1.948;2023-02-28T12:18:03;101785.94;;;6.08;100.00
43364;BME280;40636;52.424;-1.948;2023-02-28T12:31:55;101770.31;;;6.02;100.00
43364;BME280;40636;52.424;-1.948;2023-02-28T12:34:28;101770.94;;;6.13;100.00
43364;BME280;40636;52.424;-1.948;2023-02-28T12:37:03;101768.63;;;6.01;100.00
43364;BME280;40636;52.424;-1.948;2023-02-28T12:39:36;101762.59;;;6.14;100.00
43364;BME280;40636;52.424;-1.948;2023-02-28T12:44:53;101756.66;;;6.10;100.00
43364;BME280;40636;52.424;-1.948;2023-02-28T12:47:20;101752.38;;;6.08;100.00
43364;BME280;40636;52.424;-1.948;2023-02-28T12:52:25;101751.13;;;6.27;100.00
43364;BME280;40636;52.424;-1.948;2023-02-28T12:55:02;101744.97;;;6.33;100.00
43364;BME280;40636;52.424;-1.948;2023-02-28T12:57:42;101745.09;;;6.40;100.00
43364;BME280;40636;52.424;-1.948;2023-02-28T13:00:19;101740.75;;;6.53;100.00
43364;BME280;40636;52.424;-1.948;2023-02-28T13:05:24;101732.75;;;6.52;100.00
43364;BME280;40636;52.424;-1.948;2023-02-28T13:10:39;101733.72;;;6.36;100.00
43364;BME280;40636;52.424;-1.948;2023-02-28T13:13:14;101744.22;;;6.39;100.00
43364;BME280;40636;52.424;-1.948;2023-02-28T13:21:00;101722.47;;;6.31;100.00
43364;BME280;40636;52.424;-1.948;2023-02-28T13:29:41;101716.97;;;6.39;100.00
43364;BME280;40636;52.424;-1.948;2023-02-28T13:34:41;101711.34;;;6.41;100.00
43364;BME280;40636;52.424;-1.948;2023-02-28T13:40:00;101712.78;;;6.28;100.00
43364;BME280;40636;52.424;-1.948;2023-02-28T13:42:35;101705.91;;;6.41;100.00
43364;BME280;40636;52.424;-1.948;2023-02-28T13:47:45;101695.53;;;6.36;100.00
43364;BME280;40636;52.424;-1.948;2023-02-28T13:50:44;101694.84;;;6.34;100.00
43364;BME280;40636;52.424;-1.948;2023-02-28T13:55:45;101700.25;;;6.42;100.00
43364;BME280;40636;52.424;-1.948;2023-02-28T14:03:53;101695.47;;;6.44;100.00
43364;BME280;40636;52.424;-1.948;2023-02-28T14:06:30;101691.53;;;6.47;100.00
43364;BME280;40636;52.424;-1.948;2023-02-28T14:11:39;101681.13;;;6.50;100.00
43364;BME280;40636;52.424;-1.948;2023-02-28T14:14:08;101680.56;;;6.55;100.00
43364;BME280;40636;52.424;-1.948;2023-02-28T14:16:44;101676.22;;;6.69;100.00
43364;BME280;40636;52.424;-1.948;2023-02-28T14:19:33;101684.00;;;6.72;100.00
43364;BME280;40636;52.424;-1.948;2023-02-28T14:31:37;101673.81;;;6.89;100.00
43364;BME280;40636;52.424;-1.948;2023-02-28T14:36:40;101678.00;;;6.76;100.00
43364;BME280;40636;52.424;-1.948;2023-02-28T14:39:14;101659.38;;;6.80;100.00
43364;BME280;40636;52.424;-1.948;2023-02-28T14:41:42;101658.91;;;6.76;100.00
43364;BME280;40636;52.424;-1.948;2023-02-28T14:46:43;101657.66;;;6.64;100.00
43364;BME280;40636;52.424;-1.948;2023-02-28T14:51:44;101656.88;;;6.55;100.00
43364;BME280;40636;52.424;-1.948;2023-02-28T14:54:15;101658.06;;;6.53;100.00
43364;BME280;40636;52.424;-1.948;2023-02-28T14:56:42;101654.50;;;6.52;100.00
43364;BME280;40636;52.424;-1.948;2023-02-28T14:59:31;101646.31;;;6.52;100.00
43364;BME280;40636;52.424;-1.948;2023-02-28T15:02:29;101649.88;;;6.53;100.00
43364;BME280;40636;52.424;-1.948;2023-02-28T15:04:59;101651.72;;;6.60;100.00
43364;BME280;40636;52.424;-1.948;2023-02-28T15:07:26;101646.44;;;6.59;100.00
43364;BME280;40636;52.424;-1.948;2023-02-28T15:10:25;101648.56;;;6.49;100.00
43364;BME280;40636;52.424;-1.948;2023-02-28T15:13:00;101653.47;;;6.53;100.00
43364;BME280;40636;52.424;-1.948;2023-02-28T15:26:33;101629.22;;;6.58;100.00
43364;BME280;40636;52.424;-1.948;2023-02-28T15:29:14;101627.16;;;6.60;100.00
43364;BME280;40636;52.424;-1.948;2023-02-28T15:31:56;101621.72;;;6.60;100.00
43364;BME280;40636;52.424;-1.948;2023-02-28T15:34:33;101638.13;;;6.52;100.00
43364;BME280;40636;52.424;-1.948;2023-02-28T15:40:36;101627.56;;;6.49;100.00